createdAt,value
2022-11-25T00:00:26.848Z,4.61
2022-11-25T00:05:28.409Z,4.66
2022-11-25T00:10:30.586Z,4.66
2022-11-25T00:15:31.530Z,4.71
2022-11-25T00:20:32.333Z,4.75
2022-11-25T00:25:34.458Z,4.73
2022-11-25T00:30:35.231Z,4.76
2022-11-25T00:35:36.209Z,4.88
2022-11-25T00:40:38.341Z,4.85
2022-11-25T00:45:39.181Z,4.93
2022-11-25T00:50:40.159Z,4.95
2022-11-25T00:55:56.239Z,4.96
2022-11-25T01:01:02.388Z,4.93
2022-11-25T01:06:04.123Z,4.96
2022-11-25T01:11:08.854Z,4.89
2022-11-25T01:16:12.700Z,4.76
2022-11-25T01:21:15.335Z,4.53
2022-11-25T01:26:19.792Z,4.39
2022-11-25T01:31:22.631Z,4.32
2022-11-25T01:36:23.844Z,4.27
2022-11-25T01:41:28.382Z,4.24
2022-11-25T01:46:36.959Z,4.14
2022-11-25T01:51:42.734Z,4.17
2022-11-25T01:56:50.988Z,4.27
2022-11-25T02:01:52.112Z,4.32
2022-11-25T02:07:00.746Z,4.37
2022-11-25T02:12:04.101Z,4.44
2022-11-25T02:17:05.202Z,4.43
2022-11-25T02:22:12.825Z,4.46
2022-11-25T02:27:15.498Z,4.54
2022-11-25T02:32:16.820Z,4.57
2022-11-25T02:37:19.804Z,4.59
2022-11-25T02:42:23.691Z,4.59
2022-11-25T02:47:24.498Z,4.60
2022-11-25T02:52:25.345Z,4.63
2022-11-25T02:57:27.644Z,4.58
2022-11-25T03:02:28.432Z,4.67
2022-11-25T03:07:29.955Z,4.63
2022-11-25T03:12:34.934Z,4.61
2022-11-25T03:17:35.749Z,4.62
2022-11-25T03:22:36.600Z,4.66
2022-11-25T03:27:41.072Z,4.65
2022-11-25T03:32:42.729Z,4.59
2022-11-25T03:37:45.870Z,4.60
2022-11-25T03:42:48.303Z,4.64
2022-11-25T03:47:50.370Z,4.67
2022-11-25T03:52:51.695Z,4.69
2022-11-25T03:57:55.278Z,4.71
2022-11-25T04:02:57.812Z,4.75
2022-11-25T04:07:58.743Z,4.75
2022-11-25T04:13:01.962Z,4.64
2022-11-25T04:18:09.604Z,4.67
2022-11-25T04:23:11.012Z,4.74
2022-11-25T04:28:19.368Z,4.66
2022-11-25T04:33:20.311Z,4.68
2022-11-25T04:38:22.247Z,4.64
2022-11-25T04:43:25.180Z,4.67
2022-11-25T04:48:35.028Z,4.72
2022-11-25T04:53:36.357Z,4.80
2022-11-25T04:58:56.296Z,4.78
2022-11-25T05:03:57.793Z,4.75
2022-11-25T05:09:00.546Z,4.65
2022-11-25T05:14:04.162Z,4.60
2022-11-25T05:19:05.654Z,4.52
2022-11-25T05:24:06.860Z,4.98
2022-11-25T05:29:11.450Z,4.85
2022-11-25T05:34:12.350Z,4.39
2022-11-25T05:39:13.815Z,4.13
2022-11-25T05:44:38.672Z,3.98
2022-11-25T05:49:39.712Z,3.91
2022-11-25T05:54:41.254Z,3.78
2022-11-25T05:59:44.291Z,4.08
2022-11-25T06:04:52.771Z,3.84
2022-11-25T06:09:53.610Z,3.64
2022-11-25T06:14:56.018Z,3.44
2022-11-25T06:19:56.936Z,3.45
2022-11-25T06:25:03.387Z,3.36
2022-11-25T06:30:09.291Z,3.34
2022-11-25T06:35:11.645Z,3.24
2022-11-25T06:40:20.853Z,3.29
2022-11-25T06:45:23.023Z,3.30
2022-11-25T06:50:24.338Z,3.17
2022-11-25T06:55:25.139Z,3.21
2022-11-25T07:00:27.579Z,3.19
2022-11-25T07:05:28.437Z,3.17
2022-11-25T07:10:29.344Z,3.16
2022-11-25T07:15:31.536Z,3.16
2022-11-25T07:20:32.807Z,3.10
2022-11-25T07:25:34.283Z,3.18
2022-11-25T07:35:57.213Z,3.29
2022-11-25T07:40:58.125Z,3.28
2022-11-25T07:46:10.020Z,3.36
2022-11-25T07:51:18.735Z,3.41
2022-11-25T07:56:21.135Z,3.51
2022-11-25T08:01:23.574Z,3.64
2022-11-25T08:06:26.583Z,3.71
2022-11-25T08:11:29.889Z,3.75
2022-11-25T08:16:33.018Z,3.68
2022-11-25T08:21:34.512Z,3.59
2022-11-25T08:26:37.764Z,3.68
2022-11-25T08:31:39.991Z,3.75
2022-11-25T08:36:46.564Z,3.84
2022-11-25T08:41:54.228Z,3.91
2022-11-25T08:46:57.369Z,3.85
2022-11-25T08:51:58.464Z,3.98
2022-11-25T08:57:00.713Z,4.06
2022-11-25T09:02:03.294Z,4.03
2022-11-25T09:07:05.585Z,4.05
2022-11-25T09:12:06.678Z,4.13
2022-11-25T09:17:12.114Z,4.15
2022-11-25T09:22:12.935Z,4.14
2022-11-25T09:27:13.754Z,4.19
2022-11-25T09:32:15.972Z,4.23
2022-11-25T09:37:16.821Z,4.33
2022-11-25T09:42:49.464Z,4.40
2022-11-25T09:48:01.661Z,4.61
2022-11-25T09:53:10.727Z,4.77
2022-11-25T09:58:22.627Z,4.90
2022-11-25T10:03:35.730Z,5.06
2022-11-25T10:08:40.460Z,5.19
2022-11-25T10:13:47.935Z,5.40
2022-11-25T10:19:02.091Z,5.49
2022-11-25T10:24:05.003Z,5.65
2022-11-25T10:29:23.000Z,5.76
2022-11-25T10:34:37.283Z,5.92
2022-11-25T10:39:38.301Z,6.03
2022-11-25T10:44:41.111Z,6.21
2022-11-25T10:49:52.016Z,6.36
2022-11-25T10:55:08.790Z,6.52
2022-11-25T11:00:26.588Z,6.71
2022-11-25T11:05:30.322Z,6.87
2022-11-25T11:10:31.154Z,6.93
2022-11-25T11:15:33.767Z,7.15
2022-11-25T11:20:36.185Z,7.30
2022-11-25T11:25:38.534Z,7.53
2022-11-25T11:30:56.547Z,7.67
2022-11-25T11:36:12.554Z,7.79
2022-11-25T11:41:23.663Z,8.01
2022-11-25T11:46:34.162Z,8.16
2022-11-25T11:51:45.381Z,8.16
2022-11-25T11:56:55.016Z,8.22
2022-11-25T12:02:13.962Z,8.40
2022-11-25T12:07:22.304Z,8.41
2022-11-25T12:12:35.061Z,8.36
2022-11-25T12:17:45.082Z,8.43
2022-11-25T12:22:54.908Z,8.59
2022-11-25T12:28:01.623Z,8.78
2022-11-25T12:33:11.636Z,8.89
2022-11-25T12:38:29.381Z,8.94
2022-11-25T12:43:39.981Z,8.87
2022-11-25T12:48:43.715Z,8.85
2022-11-25T12:53:53.105Z,8.97
2022-11-25T12:59:07.708Z,8.74
2022-11-25T13:04:32.589Z,8.93
2022-11-25T13:09:55.680Z,8.96
2022-11-25T13:15:21.487Z,8.92
2022-11-25T13:20:46.046Z,8.99
2022-11-25T13:25:49.828Z,9.13
2022-11-25T13:30:51.887Z,9.05
2022-11-25T13:35:54.223Z,9.13
2022-11-25T13:46:36.126Z,8.73
2022-11-25T13:51:37.947Z,8.20
2022-11-25T13:56:39.027Z,8.08
2022-11-25T14:01:42.494Z,7.84
2022-11-25T14:07:06.590Z,7.69
2022-11-25T14:12:38.750Z,7.58
2022-11-25T14:18:04.819Z,7.39
2022-11-25T14:23:37.353Z,7.26
2022-11-25T14:28:45.239Z,7.03
2022-11-25T14:33:54.660Z,6.96
2022-11-25T14:38:59.787Z,7.60
2022-11-25T14:44:05.848Z,7.78
2022-11-25T14:49:30.692Z,7.60
2022-11-25T14:54:29.835Z,6.92
2022-11-25T14:59:30.715Z,6.66
2022-11-25T15:04:34.633Z,6.56
2022-11-25T15:09:43.135Z,6.43
2022-11-25T15:14:49.703Z,6.34
2022-11-25T15:19:53.016Z,6.05
2022-11-25T15:24:56.483Z,5.88
2022-11-25T15:29:58.993Z,5.79
2022-11-25T15:35:03.238Z,5.70
2022-11-25T15:40:30.940Z,5.73
2022-11-25T15:45:38.225Z,5.68
2022-11-25T15:50:41.500Z,5.74
2022-11-25T15:55:42.339Z,5.73
2022-11-25T16:00:43.213Z,5.72
2022-11-25T16:05:56.880Z,5.67
2022-11-25T16:11:00.403Z,5.68
2022-11-25T16:16:09.413Z,5.65
2022-11-25T16:21:14.675Z,5.63
2022-11-25T16:26:19.576Z,5.62
2022-11-25T16:31:20.474Z,5.78
2022-11-25T16:36:23.002Z,5.68
2022-11-25T16:41:26.921Z,5.73
2022-11-25T16:46:28.476Z,5.60
2022-11-25T16:51:30.752Z,5.56
2022-11-25T16:56:31.812Z,5.48
2022-11-25T17:01:35.305Z,5.44
2022-11-25T17:06:37.866Z,5.43
2022-11-25T17:11:46.715Z,5.41
2022-11-25T17:16:47.860Z,5.40
2022-11-25T17:21:50.069Z,5.45
2022-11-25T17:26:54.501Z,5.35
2022-11-25T17:31:58.636Z,5.49
2022-11-25T17:37:01.101Z,5.51
2022-11-25T17:42:02.654Z,5.29
2022-11-25T17:47:03.556Z,5.40
2022-11-25T17:52:06.502Z,5.34
2022-11-25T17:57:11.073Z,5.36
2022-11-25T18:02:18.623Z,5.24
2022-11-25T18:07:20.939Z,5.34
2022-11-25T18:12:28.056Z,5.36
2022-11-25T18:17:28.872Z,5.45
2022-11-25T18:22:31.434Z,5.38
2022-11-25T18:27:32.391Z,5.33
2022-11-25T18:32:33.204Z,5.49
2022-11-25T18:37:35.437Z,5.42
2022-11-25T18:42:36.241Z,5.55
2022-11-25T18:47:37.055Z,5.57
2022-11-25T18:52:39.188Z,5.54
2022-11-25T18:57:40.828Z,5.61
2022-11-25T19:02:41.819Z,5.60
2022-11-25T19:07:44.112Z,6.72
2022-11-25T19:12:48.227Z,6.22
2022-11-25T19:17:53.083Z,5.77
2022-11-25T19:23:00.290Z,5.58
2022-11-25T19:28:02.354Z,5.53
2022-11-25T19:33:03.735Z,5.49
2022-11-25T19:38:14.637Z,5.44
2022-11-25T19:43:15.548Z,5.44
2022-11-25T19:48:19.285Z,5.42
2022-11-25T19:53:22.976Z,5.38
2022-11-25T19:58:24.000Z,5.38
2022-11-25T20:03:27.999Z,5.38
2022-11-25T20:08:30.204Z,5.30
2022-11-25T20:13:31.136Z,5.38
2022-11-25T20:18:32.029Z,5.33
2022-11-25T20:23:43.378Z,5.41
2022-11-25T20:28:44.733Z,5.44
2022-11-25T20:33:45.644Z,5.45
2022-11-25T20:38:52.789Z,5.60
2022-11-25T20:43:54.248Z,5.49
2022-11-25T20:48:57.676Z,5.50
2022-11-25T20:54:01.985Z,5.51
2022-11-25T20:59:02.856Z,5.56
2022-11-25T21:04:03.703Z,5.50
2022-11-25T21:09:05.916Z,5.59
2022-11-25T21:14:13.133Z,5.63
2022-11-25T21:19:14.975Z,5.55
2022-11-25T21:24:31.115Z,5.63
2022-11-25T21:29:32.500Z,5.68
2022-11-25T21:34:33.344Z,5.67
2022-11-25T21:39:35.526Z,5.67
2022-11-25T21:44:40.649Z,5.73
2022-11-25T21:49:41.587Z,5.68
2022-11-25T21:54:44.378Z,5.77
2022-11-25T21:59:46.819Z,5.79
2022-11-25T22:04:50.761Z,5.80
2022-11-25T22:09:52.967Z,5.87
2022-11-25T22:14:54.367Z,5.87
2022-11-25T22:19:55.454Z,5.92
2022-11-25T22:24:57.578Z,5.98
2022-11-25T22:29:58.492Z,5.97
2022-11-25T22:34:59.294Z,6.06
2022-11-25T22:40:01.464Z,6.17
2022-11-25T22:45:05.288Z,6.24
2022-11-25T22:50:14.000Z,6.30
2022-11-25T22:55:20.343Z,6.28
2022-11-25T23:00:27.082Z,6.41
2022-11-25T23:05:33.043Z,6.40
2022-11-25T23:10:35.541Z,6.55
2022-11-25T23:15:36.817Z,6.52
2022-11-25T23:20:39.271Z,6.58
2022-11-25T23:25:41.534Z,6.60
2022-11-25T23:30:47.936Z,6.69
2022-11-25T23:35:48.866Z,6.67
2022-11-25T23:40:51.085Z,6.71
2022-11-25T23:45:54.555Z,6.79
2022-11-25T23:50:58.456Z,6.86
2022-11-25T23:56:00.732Z,6.90
